sensor_id;sensor_type;location;lat;lon;timestamp;pressure;altitude;pressure_sealevel;temperature;humidity
66273;BME280;58450;52.150;4.466;2023-02-28T00:01:21;103199.25;;;3.49;100.00
66273;BME280;58450;52.150;4.466;2023-02-28T00:03:49;103195.38;;;3.54;100.00
66273;BME280;58450;52.150;4.466;2023-02-28T00:06:17;103196.84;;;3.60;100.00
66273;BME280;58450;52.150;4.466;2023-02-28T00:08:46;103200.72;;;3.70;100.00
66273;BME280;58450;52.150;4.466;2023-02-28T00:11:15;103192.41;;;3.77;100.00
66273;BME280;58450;52.150;4.466;2023-02-28T00:13:44;103213.31;;;3.84;100.00
66273;BME280;58450;52.150;4.466;2023-02-28T00:16:15;103197.06;;;3.89;100.00
66273;BME280;58450;52.150;4.466;2023-02-28T00:18:45;103208.25;;;3.96;100.00
66273;BME280;58450;52.150;4.466;2023-02-28T00:21:13;103211.59;;;3.99;100.00
66273;BME280;58450;52.150;4.466;2023-02-28T00:23:41;103201.72;;;4.02;100.00
66273;BME280;58450;52.150;4.466;2023-02-28T00:26:11;103203.34;;;4.04;100.00
66273;BME280;58450;52.150;4.466;2023-02-28T00:28:39;103200.59;;;4.06;100.00
66273;BME280;58450;52.150;4.466;2023-02-28T00:31:06;103210.16;;;4.10;100.00
66273;BME280;58450;52.150;4.466;2023-02-28T00:33:33;103200.09;;;4.15;100.00
66273;BME280;58450;52.150;4.466;2023-02-28T00:36:03;103201.72;;;4.18;100.00
66273;BME280;58450;52.150;4.466;2023-02-28T00:38:32;103202.59;;;4.18;100.00
66273;BME280;58450;52.150;4.466;2023-02-28T00:41:00;103205.31;;;4.17;100.00
66273;BME280;58450;52.150;4.466;2023-02-28T00:43:33;103200.00;;;4.17;100.00
66273;BME280;58450;52.150;4.466;2023-02-28T00:46:03;103201.72;;;4.18;100.00
66273;BME280;58450;52.150;4.466;2023-02-28T00:48:31;103202.59;;;4.18;100.00
66273;BME280;58450;52.150;4.466;2023-02-28T00:50:59;103201.88;;;4.14;100.00
66273;BME280;58450;52.150;4.466;2023-02-28T00:53:27;103193.88;;;4.14;100.00
66273;BME280;58450;52.150;4.466;2023-02-28T00:55:56;103195.53;;;4.17;100.00
66273;BME280;58450;52.150;4.466;2023-02-28T00:58:23;103192.09;;;4.15;100.00
66273;BME280;58450;52.150;4.466;2023-02-28T01:00:52;103191.16;;;4.16;100.00
66273;BME280;58450;52.150;4.466;2023-02-28T01:03:21;103196.38;;;4.18;100.00
66273;BME280;58450;52.150;4.466;2023-02-28T01:05:50;103196.19;;;4.21;100.00
66273;BME280;58450;52.150;4.466;2023-02-28T01:08:19;103197.09;;;4.21;100.00
66273;BME280;58450;52.150;4.466;2023-02-28T01:10:47;103196.31;;;4.19;100.00
66273;BME280;58450;52.150;4.466;2023-02-28T01:13:15;103198.03;;;4.20;100.00
66273;BME280;58450;52.150;4.466;2023-02-28T01:15:46;103203.25;;;4.22;100.00
66273;BME280;58450;52.150;4.466;2023-02-28T01:18:19;103208.59;;;4.22;100.00
66273;BME280;58450;52.150;4.466;2023-02-28T01:20:48;103203.25;;;4.22;100.00
66273;BME280;58450;52.150;4.466;2023-02-28T01:23:18;103196.97;;;4.23;100.00
66273;BME280;58450;52.150;4.466;2023-02-28T01:25:47;103202.84;;;4.29;100.00
66273;BME280;58450;52.150;4.466;2023-02-28T01:28:15;103202.72;;;4.31;100.00
66273;BME280;58450;52.150;4.466;2023-02-28T01:30:42;103204.38;;;4.34;100.00
66273;BME280;58450;52.150;4.466;2023-02-28T01:33:09;103208.59;;;4.38;100.00
66273;BME280;58450;52.150;4.466;2023-02-28T01:35:38;103192.78;;;4.35;100.00
66273;BME280;58450;52.150;4.466;2023-02-28T01:38:06;103193.63;;;4.35;100.00
66273;BME280;58450;52.150;4.466;2023-02-28T01:40:33;103190.09;;;4.35;100.00
66273;BME280;58450;52.150;4.466;2023-02-28T01:43:01;103189.81;;;4.39;100.00
66273;BME280;58450;52.150;4.466;2023-02-28T01:45:30;103194.22;;;4.40;100.00
66273;BME280;58450;52.150;4.466;2023-02-28T01:48:02;103195.81;;;4.43;100.00
66273;BME280;58450;52.150;4.466;2023-02-28T01:50:39;103181.66;;;4.42;100.00
66273;BME280;58450;52.150;4.466;2023-02-28T01:53:13;103183.09;;;4.48;100.00
66273;BME280;58450;52.150;4.466;2023-02-28T01:55:47;103178.81;;;4.46;100.00
66273;BME280;58450;52.150;4.466;2023-02-28T01:58:17;103170.88;;;4.44;100.00
66273;BME280;58450;52.150;4.466;2023-02-28T02:00:44;103165.56;;;4.44;100.00
66273;BME280;58450;52.150;4.466;2023-02-28T02:03:14;103168.22;;;4.44;100.00
66273;BME280;58450;52.150;4.466;2023-02-28T02:05:47;103171.84;;;4.43;100.00
66273;BME280;58450;52.150;4.466;2023-02-28T02:08:17;103173.66;;;4.42;100.00
66273;BME280;58450;52.150;4.466;2023-02-28T02:10:50;103178.22;;;4.40;100.00
66273;BME280;58450;52.150;4.466;2023-02-28T02:13:32;103167.56;;;4.40;100.00
66273;BME280;58450;52.150;4.466;2023-02-28T02:16:18;103170.13;;;4.42;100.00
66273;BME280;58450;52.150;4.466;2023-02-28T02:19:04;103179.84;;;4.43;100.00
66273;BME280;58450;52.150;4.466;2023-02-28T02:22:12;103175.56;;;4.40;100.00
66273;BME280;58450;52.150;4.466;2023-02-28T02:25:10;103166.16;;;4.49;100.00
66273;BME280;58450;52.150;4.466;2023-02-28T02:31:30;103158.84;;;4.53;100.00
66273;BME280;58450;52.150;4.466;2023-02-28T02:34:23;103160.56;;;4.54;100.00
66273;BME280;58450;52.150;4.466;2023-02-28T02:37:04;103162.19;;;4.56;100.00
66273;BME280;58450;52.150;4.466;2023-02-28T02:39:47;103148.00;;;4.56;100.00
66273;BME280;58450;52.150;4.466;2023-02-28T02:42:23;103153.22;;;4.57;100.00
66273;BME280;58450;52.150;4.466;2023-02-28T02:45:00;103152.19;;;4.60;100.00
66273;BME280;58450;52.150;4.466;2023-02-28T02:47:33;103148.59;;;4.61;100.00
66273;BME280;58450;52.150;4.466;2023-02-28T02:50:08;103150.47;;;4.59;100.00
66273;BME280;58450;52.150;4.466;2023-02-28T02:52:43;103151.31;;;4.59;100.00
66273;BME280;58450;52.150;4.466;2023-02-28T02:55:14;103154.75;;;4.62;100.00
66273;BME280;58450;52.150;4.466;2023-02-28T02:57:47;103150.38;;;4.61;100.00
66273;BME280;58450;52.150;4.466;2023-02-28T03:00:21;103155.88;;;4.57;100.00
66273;BME280;58450;52.150;4.466;2023-02-28T03:02:52;103151.31;;;4.59;100.00
66273;BME280;58450;52.150;4.466;2023-02-28T03:05:26;103153.91;;;4.61;100.00
66273;BME280;58450;52.150;4.466;2023-02-28T03:07:57;103165.34;;;4.63;100.00
66273;BME280;58450;52.150;4.466;2023-02-28T03:10:31;103153.63;;;4.66;100.00
66273;BME280;58450;52.150;4.466;2023-02-28T03:13:11;103163.34;;;4.67;100.00
66273;BME280;58450;52.150;4.466;2023-02-28T03:15:59;103155.34;;;4.67;100.00
66273;BME280;58450;52.150;4.466;2023-02-28T03:18:51;103162.50;;;4.66;100.00
66273;BME280;58450;52.150;4.466;2023-02-28T03:21:30;103156.41;;;4.64;100.00
66273;BME280;58450;52.150;4.466;2023-02-28T03:24:05;103153.56;;;4.67;100.00
66273;BME280;58450;52.150;4.466;2023-02-28T03:26:38;103152.69;;;4.67;100.00
66273;BME280;58450;52.150;4.466;2023-02-28T03:29:13;103148.88;;;4.71;100.00
66273;BME280;58450;52.150;4.466;2023-02-28T03:31:52;103144.25;;;4.75;100.00
66273;BME280;58450;52.150;4.466;2023-02-28T03:34:29;103142.25;;;4.78;100.00
66273;BME280;58450;52.150;4.466;2023-02-28T03:37:05;103150.34;;;4.77;100.00
66273;BME280;58450;52.150;4.466;2023-02-28T03:39:42;103143.28;;;4.76;100.00
66273;BME280;58450;52.150;4.466;2023-02-28T03:42:15;103143.38;;;4.74;100.00
66273;BME280;58450;52.150;4.466;2023-02-28T03:44:49;103143.38;;;4.74;100.00
66273;BME280;58450;52.150;4.466;2023-02-28T03:47:28;103142.53;;;4.73;100.00
66273;BME280;58450;52.150;4.466;2023-02-28T03:50:05;103140.72;;;4.74;100.00
66273;BME280;58450;52.150;4.466;2023-02-28T03:52:44;103143.28;;;4.76;100.00
66273;BME280;58450;52.150;4.466;2023-02-28T03:55:18;103145.97;;;4.76;100.00
66273;BME280;58450;52.150;4.466;2023-02-28T03:57:53;103142.53;;;4.73;100.00
66273;BME280;58450;52.150;4.466;2023-02-28T04:00:32;103152.31;;;4.73;100.00
66273;BME280;58450;52.150;4.466;2023-02-28T04:03:04;103139.88;;;4.57;100.00
66273;BME280;58450;52.150;4.466;2023-02-28T04:05:32;103139.81;;;4.59;100.00
66273;BME280;58450;52.150;4.466;2023-02-28T04:08:12;103152.09;;;4.62;100.00
66273;BME280;58450;52.150;4.466;2023-02-28T04:10:40;103152.59;;;4.68;100.00
66273;BME280;58450;52.150;4.466;2023-02-28T04:13:11;103155.47;;;4.65;100.00
66273;BME280;58450;52.150;4.466;2023-02-28T04:15:38;103155.72;;;4.61;100.00
66273;BME280;58450;52.150;4.466;2023-02-28T04:18:07;103155.63;;;4.62;100.00
66273;BME280;58450;52.150;4.466;2023-02-28T04:20:35;103158.31;;;4.62;100.00
66273;BME280;58450;52.150;4.466;2023-02-28T04:23:02;103163.63;;;4.62;100.00
66273;BME280;58450;52.150;4.466;2023-02-28T04:25:31;103162.28;;;4.55;100.00
66273;BME280;58450;52.150;4.466;2023-02-28T04:27:58;103155.41;;;4.51;100.00
66273;BME280;58450;52.150;4.466;2023-02-28T04:30:26;103156.19;;;4.53;100.00
66273;BME280;58450;52.150;4.466;2023-02-28T04:32:55;103159.69;;;4.53;100.00
66273;BME280;58450;52.150;4.466;2023-02-28T04:35:22;103164.84;;;4.56;100.00
66273;BME280;58450;52.150;4.466;2023-02-28T04:37:50;103160.47;;;4.55;100.00
66273;BME280;58450;52.150;4.466;2023-02-28T04:40:18;103160.38;;;4.57;100.00
66273;BME280;58450;52.150;4.466;2023-02-28T04:42:46;103153.22;;;4.57;100.00
66273;BME280;58450;52.150;4.466;2023-02-28T04:45:14;103163.81;;;4.59;100.00
66273;BME280;58450;52.150;4.466;2023-02-28T04:47:43;103159.25;;;4.61;100.00
66273;BME280;58450;52.150;4.466;2023-02-28T04:50:10;103158.19;;;4.64;100.00
66273;BME280;58450;52.150;4.466;2023-02-28T04:52:38;103158.13;;;4.65;100.00
66273;BME280;58450;52.150;4.466;2023-02-28T04:55:06;103157.25;;;4.65;100.00
66273;BME280;58450;52.150;4.466;2023-02-28T04:57:34;103157.53;;;4.60;100.00
66273;BME280;58450;52.150;4.466;2023-02-28T05:00:03;103160.38;;;4.57;100.00
66273;BME280;58450;52.150;4.466;2023-02-28T05:02:37;103154.28;;;4.55;100.00
66273;BME280;58450;52.150;4.466;2023-02-28T05:05:06;103153.41;;;4.54;100.00
66273;BME280;58450;52.150;4.466;2023-02-28T05:07:33;103155.59;;;4.48;100.00
66273;BME280;58450;52.150;4.466;2023-02-28T05:10:01;103150.84;;;4.53;100.00
66273;BME280;58450;52.150;4.466;2023-02-28T05:12:28;103159.09;;;4.48;100.00
66273;BME280;58450;52.150;4.466;2023-02-28T05:14:56;103157.31;;;4.49;100.00
66273;BME280;58450;52.150;4.466;2023-02-28T05:17:25;103154.53;;;4.50;100.00
66273;BME280;58450;52.150;4.466;2023-02-28T05:19:52;103153.69;;;4.50;100.00
66273;BME280;58450;52.150;4.466;2023-02-28T05:22:20;103160.03;;;4.47;100.00
66273;BME280;58450;52.150;4.466;2023-02-28T05:24:47;103156.59;;;4.45;100.00
66273;BME280;58450;52.150;4.466;2023-02-28T05:27:14;103150.72;;;4.40;100.00
66273;BME280;58450;52.150;4.466;2023-02-28T05:29:42;103150.59;;;4.41;100.00
66273;BME280;58450;52.150;4.466;2023-02-28T05:32:11;103145.81;;;4.32;100.00
66273;BME280;58450;52.150;4.466;2023-02-28T05:34:41;103155.44;;;4.35;100.00
66273;BME280;58450;52.150;4.466;2023-02-28T05:37:11;103161.91;;;4.31;100.00
66273;BME280;58450;52.150;4.466;2023-02-28T05:39:40;103152.97;;;4.32;100.00
66273;BME280;58450;52.150;4.466;2023-02-28T05:42:08;103154.56;;;4.34;100.00
66273;BME280;58450;52.150;4.466;2023-02-28T05:44:36;103158.97;;;4.35;100.00
66273;BME280;58450;52.150;4.466;2023-02-28T05:47:04;103155.09;;;4.25;100.00
66273;BME280;58450;52.150;4.466;2023-02-28T05:49:31;103155.09;;;4.25;100.00
66273;BME280;58450;52.150;4.466;2023-02-28T05:52:00;103156.94;;;4.24;100.00
66273;BME280;58450;52.150;4.466;2023-02-28T05:54:27;103162.78;;;4.15;100.00
66273;BME280;58450;52.150;4.466;2023-02-28T05:56:55;103159.16;;;4.16;100.00
66273;BME280;58450;52.150;4.466;2023-02-28T05:59:22;103152.72;;;4.04;100.00
66273;BME280;58450;52.150;4.466;2023-02-28T06:01:50;103159.94;;;4.02;100.00
66273;BME280;58450;52.150;4.466;2023-02-28T06:04:19;103161.47;;;4.06;100.00
66273;BME280;58450;52.150;4.466;2023-02-28T06:06:48;103166.03;;;4.04;100.00
66273;BME280;58450;52.150;4.466;2023-02-28T06:09:18;103168.63;;;4.06;100.00
66273;BME280;58450;52.150;4.466;2023-02-28T06:11:46;103164.91;;;4.08;100.00
66273;BME280;58450;52.150;4.466;2023-02-28T06:14:17;103158.75;;;3.92;100.00
66273;BME280;58450;52.150;4.466;2023-02-28T06:16:46;103171.63;;;3.83;100.00
66273;BME280;58450;52.150;4.466;2023-02-28T06:19:14;103163.66;;;3.83;100.00
66273;BME280;58450;52.150;4.466;2023-02-28T06:21:42;103162.00;;;3.81;100.00
66273;BME280;58450;52.150;4.466;2023-02-28T06:24:10;103158.66;;;3.77;100.00
66273;BME280;58450;52.150;4.466;2023-02-28T06:26:39;103163.81;;;3.80;100.00
66273;BME280;58450;52.150;4.466;2023-02-28T06:29:06;103156.84;;;3.78;100.00
66273;BME280;58450;52.150;4.466;2023-02-28T06:31:34;103169.38;;;3.76;100.00
66273;BME280;58450;52.150;4.466;2023-02-28T06:34:02;103159.66;;;3.75;100.00
66273;BME280;58450;52.150;4.466;2023-02-28T06:36:29;103163.88;;;3.79;100.00
66273;BME280;58450;52.150;4.466;2023-02-28T06:38:57;103166.38;;;3.82;100.00
66273;BME280;58450;52.150;4.466;2023-02-28T06:41:25;103156.00;;;3.77;100.00
66273;BME280;58450;52.150;4.466;2023-02-28T06:43:55;103170.66;;;3.68;100.00
66273;BME280;58450;52.150;4.466;2023-02-28T06:46:23;103173.09;;;3.73;100.00
66273;BME280;58450;52.150;4.466;2023-02-28T06:48:50;103164.31;;;3.71;100.00
66273;BME280;58450;52.150;4.466;2023-02-28T06:51:19;103169.97;;;3.65;100.00
66273;BME280;58450;52.150;4.466;2023-02-28T06:53:48;103174.75;;;3.58;100.00
66273;BME280;58450;52.150;4.466;2023-02-28T06:56:16;103174.19;;;3.69;100.00
66273;BME280;58450;52.150;4.466;2023-02-28T06:58:46;103180.69;;;3.63;100.00
66273;BME280;58450;52.150;4.466;2023-02-28T07:01:16;103185.00;;;3.50;100.00
66273;BME280;58450;52.150;4.466;2023-02-28T07:03:45;103181.16;;;3.38;100.00
66273;BME280;58450;52.150;4.466;2023-02-28T07:06:12;103187.38;;;3.38;100.00
66273;BME280;58450;52.150;4.466;2023-02-28T07:08:40;103186.19;;;3.27;100.00
66273;BME280;58450;52.150;4.466;2023-02-28T07:11:08;103189.28;;;3.19;100.00
66273;BME280;58450;52.150;4.466;2023-02-28T07:13:35;103189.34;;;3.17;100.00
66273;BME280;58450;52.150;4.466;2023-02-28T07:16:05;103190.06;;;2.86;100.00
66273;BME280;58450;52.150;4.466;2023-02-28T07:18:36;103209.09;;;2.78;100.00
66273;BME280;58450;52.150;4.466;2023-02-28T07:21:06;103203.69;;;2.62;100.00
66273;BME280;58450;52.150;4.466;2023-02-28T07:23:36;103217.13;;;2.40;100.00
66273;BME280;58450;52.150;4.466;2023-02-28T07:26:04;103217.53;;;2.32;100.00
66273;BME280;58450;52.150;4.466;2023-02-28T07:28:33;103216.31;;;2.20;100.00
66273;BME280;58450;52.150;4.466;2023-02-28T07:31:04;103225.06;;;2.22;100.00
66273;BME280;58450;52.150;4.466;2023-02-28T07:33:32;103228.72;;;2.19;100.00
66273;BME280;58450;52.150;4.466;2023-02-28T07:36:03;103224.72;;;2.11;100.00
66273;BME280;58450;52.150;4.466;2023-02-28T07:38:34;103220.41;;;2.08;100.00
66273;BME280;58450;52.150;4.466;2023-02-28T07:41:02;103225.22;;;2.00;100.00
66273;BME280;58450;52.150;4.466;2023-02-28T07:43:31;103223.16;;;2.06;100.00
66273;BME280;58450;52.150;4.466;2023-02-28T07:46:02;103220.63;;;2.03;100.00
66273;BME280;58450;52.150;4.466;2023-02-28T07:48:30;103221.63;;;2.01;100.00
66273;BME280;58450;52.150;4.466;2023-02-28T07:50:58;103228.25;;;1.92;100.00
66273;BME280;58450;52.150;4.466;2023-02-28T07:53:27;103236.13;;;1.94;100.00
66273;BME280;58450;52.150;4.466;2023-02-28T07:55:56;103237.00;;;1.94;100.00
66273;BME280;58450;52.150;4.466;2023-02-28T07:58:24;103227.03;;;1.99;100.00
66273;BME280;58450;52.150;4.466;2023-02-28T08:00:53;103230.31;;;2.04;100.00
66273;BME280;58450;52.150;4.466;2023-02-28T08:03:22;103227.59;;;2.06;100.00
66273;BME280;58450;52.150;4.466;2023-02-28T08:05:51;103228.31;;;2.10;100.00
66273;BME280;58450;52.150;4.466;2023-02-28T08:08:19;103226.59;;;2.09;100.00
66273;BME280;58450;52.150;4.466;2023-02-28T08:10:48;103227.31;;;2.12;100.00
66273;BME280;58450;52.150;4.466;2023-02-28T08:13:15;103227.38;;;2.11;100.00
66273;BME280;58450;52.150;4.466;2023-02-28T08:15:44;103236.50;;;2.05;100.00
66273;BME280;58450;52.150;4.466;2023-02-28T08:18:13;103233.97;;;2.02;100.00
66273;BME280;58450;52.150;4.466;2023-02-28T08:20:40;103234.47;;;2.10;100.00
66273;BME280;58450;52.150;4.466;2023-02-28T08:23:08;103231.91;;;2.09;100.00
66273;BME280;58450;52.150;4.466;2023-02-28T08:25:35;103236.22;;;1.92;100.00
66273;BME280;58450;52.150;4.466;2023-02-28T08:28:04;103238.72;;;1.95;100.00
66273;BME280;58450;52.150;4.466;2023-02-28T08:30:32;103228.94;;;1.96;100.00
66273;BME280;58450;52.150;4.466;2023-02-28T08:32:59;103232.09;;;2.04;100.00
66273;BME280;58450;52.150;4.466;2023-02-28T08:35:27;103232.91;;;2.06;100.00
66273;BME280;58450;52.150;4.466;2023-02-28T08:37:55;103236.44;;;2.06;100.00
66273;BME280;58450;52.150;4.466;2023-02-28T08:40:22;103237.56;;;2.01;100.00
66273;BME280;58450;52.150;4.466;2023-02-28T08:42:50;103229.03;;;1.94;100.00
66273;BME280;58450;52.150;4.466;2023-02-28T08:45:19;103226.88;;;2.02;100.00
66273;BME280;58450;52.150;4.466;2023-02-28T08:47:46;103225.22;;;2.19;100.00
66273;BME280;58450;52.150;4.466;2023-02-28T08:50:14;103223.28;;;2.22;100.00
66273;BME280;58450;52.150;4.466;2023-02-28T08:52:42;103222.09;;;2.28;100.00
66273;BME280;58450;52.150;4.466;2023-02-28T08:55:10;103225.41;;;2.33;100.00
66273;BME280;58450;52.150;4.466;2023-02-28T08:57:38;103229.63;;;2.38;100.00
66273;BME280;58450;52.150;4.466;2023-02-28T09:00:06;103230.28;;;2.43;100.00
66273;BME280;58450;52.150;4.466;2023-02-28T09:02:38;103238.09;;;2.46;100.00
66273;BME280;58450;52.150;4.466;2023-02-28T09:05:06;103219.19;;;2.52;100.00
66273;BME280;58450;52.150;4.466;2023-02-28T09:07:35;103216.78;;;2.47;100.00
66273;BME280;58450;52.150;4.466;2023-02-28T09:10:02;103216.19;;;2.60;100.00
66273;BME280;58450;52.150;4.466;2023-02-28T09:12:33;103225.88;;;2.78;100.00
66273;BME280;58450;52.150;4.466;2023-02-28T09:15:02;103227.00;;;2.92;100.00
66273;BME280;58450;52.150;4.466;2023-02-28T09:17:30;103228.03;;;3.07;100.00
66273;BME280;58450;52.150;4.466;2023-02-28T09:19:59;103222.16;;;3.18;100.00
66273;BME280;58450;52.150;4.466;2023-02-28T09:22:26;103218.22;;;3.25;100.00
66273;BME280;58450;52.150;4.466;2023-02-28T09:24:54;103208.19;;;3.30;100.00
66273;BME280;58450;52.150;4.466;2023-02-28T09:27:22;103213.97;;;3.38;100.00
66273;BME280;58450;52.150;4.466;2023-02-28T09:29:49;103211.78;;;3.47;100.00
66273;BME280;58450;52.150;4.466;2023-02-28T09:32:17;103206.81;;;3.57;100.00
66273;BME280;58450;52.150;4.466;2023-02-28T09:34:45;103211.38;;;3.70;100.00
66273;BME280;58450;52.150;4.466;2023-02-28T09:37:13;103215.38;;;3.79;100.00
66273;BME280;58450;52.150;4.466;2023-02-28T09:39:41;103214.59;;;3.93;100.00
66273;BME280;58450;52.150;4.466;2023-02-28T09:42:17;103215.47;;;4.10;100.00
66273;BME280;58450;52.150;4.466;2023-02-28T09:44:52;103227.41;;;4.19;100.00
66273;BME280;58450;52.150;4.466;2023-02-28T09:47:27;103224.69;;;4.20;100.00
66273;BME280;58450;52.150;4.466;2023-02-28T09:50:03;103220.47;;;4.16;100.00
66273;BME280;58450;52.150;4.466;2023-02-28T09:52:48;103220.03;;;4.24;100.00
66273;BME280;58450;52.150;4.466;2023-02-28T09:55:20;103221.31;;;4.33;100.00
66273;BME280;58450;52.150;4.466;2023-02-28T09:57:55;103228.69;;;4.43;100.00
66273;BME280;58450;52.150;4.466;2023-02-28T10:00:31;103232.63;;;4.52;100.00
66273;BME280;58450;52.150;4.466;2023-02-28T10:03:06;103214.66;;;4.56;100.00
66273;BME280;58450;52.150;4.466;2023-02-28T10:05:53;103217.16;;;4.59;100.00
66273;BME280;58450;52.150;4.466;2023-02-28T10:08:29;103224.22;;;4.60;100.00
66273;BME280;58450;52.150;4.466;2023-02-28T10:11:10;103222.50;;;4.59;100.00
66273;BME280;58450;52.150;4.466;2023-02-28T10:13:49;103222.13;;;4.65;100.00
66273;BME280;58450;52.150;4.466;2023-02-28T10:16:25;103219.88;;;4.73;100.00
66273;BME280;58450;52.150;4.466;2023-02-28T10:19:03;103223.16;;;4.79;100.00
66273;BME280;58450;52.150;4.466;2023-02-28T10:21:37;103214.13;;;4.96;100.00
66273;BME280;58450;52.150;4.466;2023-02-28T10:24:19;103226.19;;;5.17;100.00
66273;BME280;58450;52.150;4.466;2023-02-28T10:26:52;103221.50;;;5.07;100.00
66273;BME280;58450;52.150;4.466;2023-02-28T10:29:26;103220.59;;;4.92;100.00
66273;BME280;58450;52.150;4.466;2023-02-28T10:31:55;103227.72;;;4.91;100.00
66273;BME280;58450;52.150;4.466;2023-02-28T10:34:29;103224.03;;;4.94;100.00
66273;BME280;58450;52.150;4.466;2023-02-28T10:36:58;103218.97;;;5.20;100.00
66273;BME280;58450;52.150;4.466;2023-02-28T10:39:42;103218.94;;;5.05;100.00
66273;BME280;58450;52.150;4.466;2023-02-28T10:42:23;103237.53;;;5.21;100.00
66273;BME280;58450;52.150;4.466;2023-02-28T10:45:05;103230.31;;;4.62;100.00
66273;BME280;58450;52.150;4.466;2023-02-28T10:47:48;103241.50;;;4.21;100.00
66273;BME280;58450;52.150;4.466;2023-02-28T10:50:42;103237.50;;;4.29;100.00
66273;BME280;58450;52.150;4.466;2023-02-28T10:53:28;103227.50;;;4.33;100.00
66273;BME280;58450;52.150;4.466;2023-02-28T10:56:03;103224.06;;;4.31;100.00
66273;BME280;58450;52.150;4.466;2023-02-28T10:58:46;103216.06;;;4.31;100.00
66273;BME280;58450;52.150;4.466;2023-02-28T11:01:18;103217.59;;;4.51;100.00
66273;BME280;58450;52.150;4.466;2023-02-28T11:03:48;103218.00;;;4.76;100.00
66273;BME280;58450;52.150;4.466;2023-02-28T11:06:19;103214.81;;;4.69;100.00
66273;BME280;58450;52.150;4.466;2023-02-28T11:08:51;103225.22;;;5.04;100.00
66273;BME280;58450;52.150;4.466;2023-02-28T11:11:22;103210.47;;;5.27;100.00
66273;BME280;58450;52.150;4.466;2023-02-28T11:13:54;103216.78;;;5.41;100.00
66273;BME280;58450;52.150;4.466;2023-02-28T11:16:32;103217.72;;;6.67;100.00
66273;BME280;58450;52.150;4.466;2023-02-28T11:19:02;103205.88;;;7.88;100.00
66273;BME280;58450;52.150;4.466;2023-02-28T11:21:35;103190.38;;;7.41;100.00
66273;BME280;58450;52.150;4.466;2023-02-28T11:24:22;103192.53;;;7.62;98.55
66273;BME280;58450;52.150;4.466;2023-02-28T11:26:54;103189.00;;;8.47;93.42
66273;BME280;58450;52.150;4.466;2023-02-28T11:29:25;103192.88;;;8.92;89.66
66273;BME280;58450;52.150;4.466;2023-02-28T11:32:07;103186.59;;;9.50;85.19
66273;BME280;58450;52.150;4.466;2023-02-28T11:34:41;103188.09;;;10.20;86.63
66273;BME280;58450;52.150;4.466;2023-02-28T11:37:15;103182.94;;;10.83;81.90
66273;BME280;58450;52.150;4.466;2023-02-28T11:39:45;103193.50;;;11.38;78.95
66273;BME280;58450;52.150;4.466;2023-02-28T11:42:27;103189.34;;;11.34;66.89
66273;BME280;58450;52.150;4.466;2023-02-28T11:45:22;103187.22;;;11.06;61.57
66273;BME280;58450;52.150;4.466;2023-02-28T11:48:09;103177.84;;;11.32;59.44
66273;BME280;58450;52.150;4.466;2023-02-28T11:50:57;103177.88;;;10.35;56.68
66273;BME280;58450;52.150;4.466;2023-02-28T11:53:47;103181.44;;;10.47;58.44
66273;BME280;58450;52.150;4.466;2023-02-28T11:56:36;103183.53;;;10.21;58.76
66273;BME280;58450;52.150;4.466;2023-02-28T11:59:30;103170.31;;;9.74;58.25
66273;BME280;58450;52.150;4.466;2023-02-28T12:02:18;103174.84;;;9.05;59.09
66273;BME280;58450;52.150;4.466;2023-02-28T12:04:58;103172.41;;;9.13;60.30
66273;BME280;58450;52.150;4.466;2023-02-28T12:07:47;103168.25;;;9.66;60.36
66273;BME280;58450;52.150;4.466;2023-02-28T12:10:25;103157.38;;;10.23;59.23
66273;BME280;58450;52.150;4.466;2023-02-28T12:13:04;103156.78;;;9.53;55.21
66273;BME280;58450;52.150;4.466;2023-02-28T12:16:12;103156.06;;;9.16;57.65
66273;BME280;58450;52.150;4.466;2023-02-28T12:19:19;103153.19;;;8.95;58.02
66273;BME280;58450;52.150;4.466;2023-02-28T12:22:03;103155.06;;;9.18;59.20
66273;BME280;58450;52.150;4.466;2023-02-28T12:25:18;103158.81;;;9.83;58.90
66273;BME280;58450;52.150;4.466;2023-02-28T12:27:49;103149.84;;;10.49;57.09
66273;BME280;58450;52.150;4.466;2023-02-28T12:30:22;103144.03;;;11.18;55.00
66273;BME280;58450;52.150;4.466;2023-02-28T12:32:56;103141.63;;;11.56;52.10
66273;BME280;58450;52.150;4.466;2023-02-28T12:35:34;103143.59;;;12.04;52.82
66273;BME280;58450;52.150;4.466;2023-02-28T12:38:08;103145.06;;;12.18;50.29
66273;BME280;58450;52.150;4.466;2023-02-28T12:40:46;103138.00;;;11.86;49.39
66273;BME280;58450;52.150;4.466;2023-02-28T12:43:18;103142.34;;;12.18;49.74
66273;BME280;58450;52.150;4.466;2023-02-28T12:45:50;103133.53;;;12.26;47.61
66273;BME280;58450;52.150;4.466;2023-02-28T12:48:26;103138.78;;;12.47;48.22
66273;BME280;58450;52.150;4.466;2023-02-28T12:50:59;103129.88;;;12.94;48.39
66273;BME280;58450;52.150;4.466;2023-02-28T12:53:31;103130.47;;;13.26;47.38
66273;BME280;58450;52.150;4.466;2023-02-28T12:56:17;103134.34;;;13.61;46.24
66273;BME280;58450;52.150;4.466;2023-02-28T12:58:57;103127.13;;;13.80;44.93
66273;BME280;58450;52.150;4.466;2023-02-28T13:01:36;103130.00;;;14.14;43.42
66273;BME280;58450;52.150;4.466;2023-02-28T13:07:58;103118.50;;;15.44;38.71
66273;BME280;58450;52.150;4.466;2023-02-28T13:10:40;103119.53;;;16.03;38.01
66273;BME280;58450;52.150;4.466;2023-02-28T13:13:15;103111.03;;;16.64;37.00
66273;BME280;58450;52.150;4.466;2023-02-28T13:16:02;103101.44;;;17.18;35.90
66273;BME280;58450;52.150;4.466;2023-02-28T13:18:36;103099.50;;;15.87;34.73
66273;BME280;58450;52.150;4.466;2023-02-28T13:21:08;103104.22;;;16.76;35.16
66273;BME280;58450;52.150;4.466;2023-02-28T13:23:59;103098.28;;;17.29;34.59
66273;BME280;58450;52.150;4.466;2023-02-28T13:27:17;103100.28;;;18.07;34.25